メインページ
METAR-TAF:

METAR-TAF

空港 :

ペルシア湾空港

Asaluyeh, イラン

緯度: 27-22-46N, 経度: 52-44-15E, 海抜: 8m

現時点の気象観測

当レポートは1時間24分前の17:00(UTC)に作成
西/北西の風 2kt
気温 33°C
湿度 71%
気圧 997 hPa
視程: 8000m

METAR: OIBP 181700Z 29002KT 8000 NSC 33/27 Q0996 A2943

時間: 22:54 (18:24 UTC)


TAF: 見つかりません

4,000以上の空港の気象観測と天気予報(METAR報とTAF報)

利用可能な観測所は地図上に黄色い丸と赤い丸で示す。

丸の上にカーソルを重ねると観測所名を参照できる。

次にクリックすると気象観測と天気予報を参照できる。

マップの切り替え:黒色「×」印の緑ボタンをクリックして拡大、「-」印の緑ボタンをクリックして縮小、緑色の三角印をクリックして隣りの地図に切り替え


METAR-TAF: